createdAt,value
2019-05-29T00:00:34.859Z,92.60
2019-05-29T00:03:06.302Z,92.70
2019-05-29T00:05:37.462Z,92.60
2019-05-29T00:08:08.500Z,92.40
2019-05-29T00:10:39.462Z,92.30
2019-05-29T00:13:12.295Z,92.20
2019-05-29T00:15:43.403Z,92.00
2019-05-29T00:18:14.564Z,91.70
2019-05-29T00:20:46.895Z,91.80
2019-05-29T00:23:18.832Z,92.00
2019-05-29T00:25:49.748Z,91.90
2019-05-29T00:28:20.620Z,92.20
2019-05-29T00:30:51.340Z,92.30
2019-05-29T00:33:22.940Z,92.40
2019-05-29T00:35:53.831Z,92.50
2019-05-29T00:38:24.774Z,92.50
2019-05-29T00:40:55.714Z,92.60
2019-05-29T00:43:26.555Z,92.40
2019-05-29T00:45:57.387Z,92.60
2019-05-29T00:48:28.413Z,92.40
2019-05-29T00:50:59.183Z,92.20
2019-05-29T00:53:30.097Z,92.20
2019-05-29T00:56:01.906Z,92.00
2019-05-29T00:58:32.755Z,92.20
2019-05-29T01:01:03.975Z,92.30
2019-05-29T01:03:35.080Z,92.20
2019-05-29T01:06:05.968Z,92.10
2019-05-29T01:08:36.826Z,92.00
2019-05-29T01:11:07.795Z,92.10
2019-05-29T01:13:38.388Z,91.60
2019-05-29T01:16:09.474Z,91.40
2019-05-29T01:18:40.597Z,91.80
2019-05-29T01:21:11.796Z,91.90
2019-05-29T01:23:44.378Z,91.60
2019-05-29T01:26:14.728Z,91.20
2019-05-29T01:28:45.549Z,91.20
2019-05-29T01:31:19.364Z,91.30
2019-05-29T01:33:50.868Z,91.10
2019-05-29T01:36:22.057Z,91.40
2019-05-29T01:38:52.731Z,91.20
2019-05-29T01:41:23.533Z,90.90
2019-05-29T01:43:54.407Z,90.90
2019-05-29T01:46:25.254Z,91.00
2019-05-29T01:48:55.964Z,90.90
2019-05-29T01:51:27.961Z,90.90
2019-05-29T01:53:58.824Z,91.00
2019-05-29T01:56:29.945Z,90.80
2019-05-29T01:59:00.694Z,90.70
2019-05-29T02:01:33.584Z,90.70
2019-05-29T02:04:03.211Z,90.80
2019-05-29T02:06:33.817Z,90.80
2019-05-29T02:09:04.908Z,90.40
2019-05-29T02:11:35.605Z,90.60
2019-05-29T02:14:06.365Z,90.50
2019-05-29T02:16:37.323Z,90.40
2019-05-29T02:19:08.055Z,90.40
2019-05-29T02:21:39.339Z,89.30
2019-05-29T02:24:10.583Z,88.30
2019-05-29T02:26:41.294Z,88.80
2019-05-29T02:29:12.329Z,88.60
2019-05-29T02:31:43.631Z,88.40
2019-05-29T02:34:14.566Z,88.70
2019-05-29T02:36:45.325Z,88.80
2019-05-29T02:39:16.009Z,88.40
2019-05-29T02:41:46.750Z,87.50
2019-05-29T02:44:19.019Z,86.80
2019-05-29T02:46:50.814Z,87.20
2019-05-29T02:49:23.833Z,87.40
2019-05-29T02:51:54.829Z,86.50
2019-05-29T02:54:27.303Z,84.60
2019-05-29T02:56:58.444Z,85.60
2019-05-29T02:59:29.768Z,83.90
2019-05-29T03:02:01.742Z,84.10
2019-05-29T03:04:33.063Z,84.70
2019-05-29T03:07:04.288Z,85.00
2019-05-29T03:09:35.269Z,85.00
2019-05-29T03:12:06.010Z,83.00
2019-05-29T03:14:36.833Z,82.80
2019-05-29T03:17:07.488Z,82.90
2019-05-29T03:19:38.271Z,82.80
2019-05-29T03:22:08.990Z,81.60
2019-05-29T03:24:39.749Z,81.20
2019-05-29T03:27:10.536Z,81.10
2019-05-29T03:29:42.065Z,80.00
2019-05-29T03:32:14.443Z,79.10
2019-05-29T03:34:46.845Z,80.50
2019-05-29T03:37:17.168Z,77.90
2019-05-29T03:39:47.841Z,77.00
2019-05-29T03:42:18.875Z,77.70
2019-05-29T03:44:49.615Z,76.80
2019-05-29T03:47:20.364Z,76.70
2019-05-29T03:49:51.168Z,76.20
2019-05-29T03:52:21.874Z,76.20
2019-05-29T03:54:52.560Z,76.70
2019-05-29T03:57:23.430Z,77.00
2019-05-29T03:59:54.103Z,76.50
2019-05-29T04:02:26.744Z,74.70
2019-05-29T04:04:57.439Z,74.20
2019-05-29T04:07:29.273Z,74.80
2019-05-29T04:10:00.088Z,77.60
2019-05-29T04:12:31.413Z,77.30
2019-05-29T04:15:02.216Z,78.00
2019-05-29T04:17:33.755Z,77.40
2019-05-29T04:20:05.056Z,77.90
2019-05-29T04:22:38.354Z,74.90
2019-05-29T04:25:09.899Z,75.40
2019-05-29T04:27:40.642Z,74.50
2019-05-29T04:30:11.426Z,74.10
2019-05-29T04:32:42.843Z,73.80
2019-05-29T04:35:13.542Z,73.30
2019-05-29T04:37:44.268Z,71.90
2019-05-29T04:40:15.187Z,72.80
2019-05-29T04:42:46.165Z,72.70
2019-05-29T04:45:16.846Z,73.10
2019-05-29T04:47:47.730Z,71.90
2019-05-29T04:50:18.367Z,71.90
2019-05-29T04:52:49.074Z,72.40
2019-05-29T04:55:19.857Z,73.20
2019-05-29T04:57:51.087Z,74.10
2019-05-29T05:00:22.825Z,71.20
2019-05-29T05:02:54.898Z,71.50
2019-05-29T05:05:25.848Z,71.20
2019-05-29T05:07:56.528Z,69.30
2019-05-29T05:10:31.137Z,70.60
2019-05-29T05:13:02.240Z,70.70
2019-05-29T05:15:33.653Z,71.10
2019-05-29T05:18:04.634Z,70.30
2019-05-29T05:20:36.208Z,69.20
2019-05-29T05:23:07.605Z,68.80
2019-05-29T05:25:38.397Z,68.20
2019-05-29T05:28:09.204Z,68.40
2019-05-29T05:30:40.800Z,68.20
2019-05-29T05:33:11.614Z,69.10
2019-05-29T05:35:42.391Z,68.50
2019-05-29T05:38:13.019Z,70.30
2019-05-29T05:40:43.672Z,71.10
2019-05-29T05:43:23.728Z,71.40
2019-05-29T05:45:46.730Z,68.90
2019-05-29T05:48:17.461Z,70.10
2019-05-29T05:50:48.394Z,70.30
2019-05-29T05:53:19.119Z,68.50
2019-05-29T05:55:49.821Z,70.40
2019-05-29T05:58:21.002Z,67.80
2019-05-29T06:00:51.682Z,66.50
2019-05-29T06:03:23.725Z,66.80
2019-05-29T06:05:55.069Z,66.50
2019-05-29T06:08:25.765Z,66.90
2019-05-29T06:10:56.719Z,68.00
2019-05-29T06:13:27.750Z,67.50
2019-05-29T06:15:59.251Z,68.00
2019-05-29T06:18:32.389Z,68.00
2019-05-29T06:21:03.335Z,66.20
2019-05-29T06:23:34.794Z,67.00
2019-05-29T06:26:05.544Z,68.30
2019-05-29T06:28:37.099Z,67.50
2019-05-29T06:31:08.424Z,67.80
2019-05-29T06:33:39.455Z,68.10
2019-05-29T06:36:10.474Z,68.60
2019-05-29T06:38:42.207Z,68.40
2019-05-29T06:41:12.947Z,68.30
2019-05-29T06:43:44.597Z,68.10
2019-05-29T06:46:16.460Z,68.00
2019-05-29T06:48:58.634Z,68.70
2019-05-29T06:51:19.507Z,68.70
2019-05-29T06:53:50.320Z,69.30
2019-05-29T06:56:21.094Z,70.10
2019-05-29T06:58:52.169Z,70.40
2019-05-29T07:01:23.447Z,69.60
2019-05-29T07:04:10.630Z,71.00
2019-05-29T07:06:42.675Z,70.10
2019-05-29T07:09:13.435Z,70.30
2019-05-29T07:11:45.463Z,69.40
2019-05-29T07:14:17.717Z,71.20
2019-05-29T07:16:55.949Z,71.70
2019-05-29T07:19:26.822Z,71.50
2019-05-29T07:21:55.125Z,71.10
2019-05-29T07:24:25.822Z,69.90
2019-05-29T07:26:57.617Z,70.70
2019-05-29T07:29:29.486Z,71.70
2019-05-29T07:32:01.154Z,69.70
2019-05-29T07:34:47.393Z,69.50
2019-05-29T07:37:04.088Z,72.50
2019-05-29T07:39:37.353Z,71.90
2019-05-29T07:42:08.146Z,71.50
2019-05-29T07:44:39.939Z,70.90
2019-05-29T07:47:11.184Z,69.50
2019-05-29T07:49:46.147Z,68.50
2019-05-29T07:52:15.344Z,68.10
2019-05-29T07:54:46.194Z,70.20
2019-05-29T07:57:17.500Z,68.10
2019-05-29T07:59:48.837Z,66.70
2019-05-29T08:02:23.387Z,68.70
2019-05-29T08:04:54.409Z,68.40
2019-05-29T08:07:25.521Z,67.30
2019-05-29T08:09:56.235Z,67.40
2019-05-29T08:12:26.935Z,66.20
2019-05-29T08:14:57.653Z,65.90
2019-05-29T08:17:28.739Z,65.80
2019-05-29T08:20:07.185Z,65.20
2019-05-29T08:22:34.460Z,65.00
2019-05-29T08:25:04.167Z,65.20
2019-05-29T08:27:34.896Z,65.20
2019-05-29T08:30:08.473Z,65.10
2019-05-29T08:32:39.148Z,65.70
2019-05-29T08:35:10.095Z,65.90
2019-05-29T08:37:40.947Z,66.50
2019-05-29T08:40:11.783Z,67.10
2019-05-29T08:42:43.098Z,65.70
2019-05-29T08:45:14.901Z,66.60
2019-05-29T08:47:45.669Z,67.70
2019-05-29T08:50:18.427Z,67.60
2019-05-29T08:52:48.452Z,67.70
2019-05-29T08:55:19.148Z,68.60
2019-05-29T08:57:50.450Z,70.00
2019-05-29T09:00:22.304Z,70.80
2019-05-29T09:02:52.983Z,69.80
2019-05-29T09:05:24.928Z,69.50
2019-05-29T09:07:55.567Z,68.60
2019-05-29T09:10:26.193Z,69.40
2019-05-29T09:13:04.665Z,68.00
2019-05-29T09:15:29.893Z,67.60
2019-05-29T09:18:00.875Z,67.80
2019-05-29T09:20:57.418Z,68.30
2019-05-29T09:23:03.789Z,68.10
2019-05-29T09:25:35.881Z,68.90
2019-05-29T09:28:09.115Z,68.30
2019-05-29T09:30:39.943Z,69.20
2019-05-29T09:33:10.591Z,69.70
2019-05-29T09:35:41.483Z,69.80
2019-05-29T09:38:12.701Z,69.80
2019-05-29T09:40:43.345Z,69.00
2019-05-29T09:43:15.031Z,70.00
2019-05-29T09:45:46.116Z,69.80
2019-05-29T09:48:21.376Z,69.20
2019-05-29T09:50:50.810Z,69.20
2019-05-29T09:53:20.709Z,69.40
2019-05-29T09:55:52.254Z,70.70
2019-05-29T09:58:23.488Z,67.40
2019-05-29T10:01:21.369Z,68.00
2019-05-29T10:03:38.111Z,68.20
2019-05-29T10:06:09.624Z,68.90
2019-05-29T10:08:40.393Z,68.70
2019-05-29T10:11:11.328Z,66.70
2019-05-29T10:13:42.235Z,67.00
2019-05-29T10:16:13.147Z,68.10
2019-05-29T10:18:43.897Z,69.20
2019-05-29T10:21:14.536Z,68.50
2019-05-29T10:23:45.486Z,68.20
2019-05-29T10:26:16.158Z,68.00
2019-05-29T10:29:02.038Z,67.90
2019-05-29T10:31:18.914Z,68.50
2019-05-29T10:33:50.269Z,67.50
2019-05-29T10:36:21.375Z,66.60
2019-05-29T10:38:52.688Z,67.40
2019-05-29T10:41:23.571Z,67.30
2019-05-29T10:43:54.466Z,67.70
2019-05-29T10:46:25.234Z,67.20
2019-05-29T10:48:56.654Z,67.00
2019-05-29T10:51:27.696Z,67.30
2019-05-29T10:53:59.876Z,68.60
2019-05-29T10:56:30.595Z,69.60
2019-05-29T10:59:01.437Z,68.50
2019-05-29T11:01:32.793Z,68.50
2019-05-29T11:04:03.695Z,69.90
2019-05-29T11:06:34.383Z,71.60
2019-05-29T11:09:07.039Z,72.70
2019-05-29T11:11:38.022Z,73.00
2019-05-29T11:14:08.647Z,73.30
2019-05-29T11:16:39.956Z,73.70
2019-05-29T11:19:10.783Z,74.10
2019-05-29T11:21:41.394Z,74.50
2019-05-29T11:24:12.061Z,74.90
2019-05-29T11:26:42.881Z,75.20
2019-05-29T11:29:13.461Z,74.70
2019-05-29T11:31:44.187Z,75.00
2019-05-29T11:34:15.098Z,74.50
2019-05-29T11:36:45.755Z,74.20
2019-05-29T11:39:16.401Z,74.30
2019-05-29T11:41:47.075Z,74.30
2019-05-29T11:44:17.736Z,73.90
2019-05-29T11:46:50.004Z,73.90
2019-05-29T11:49:20.430Z,73.70
2019-05-29T11:51:51.548Z,73.60
2019-05-29T11:54:22.386Z,73.50
2019-05-29T11:56:53.718Z,73.80
2019-05-29T11:59:25.396Z,74.00
2019-05-29T12:01:57.357Z,73.90
2019-05-29T12:04:27.900Z,72.90
2019-05-29T12:06:59.503Z,73.20
2019-05-29T12:09:33.399Z,73.30
2019-05-29T12:12:02.505Z,73.40
2019-05-29T12:14:33.152Z,73.80
2019-05-29T12:17:04.089Z,73.90
2019-05-29T12:19:34.930Z,75.20
2019-05-29T12:22:05.627Z,79.70
2019-05-29T12:24:36.420Z,80.70
2019-05-29T12:27:07.349Z,80.70
2019-05-29T12:29:38.036Z,81.30
2019-05-29T12:32:10.740Z,82.40
2019-05-29T12:34:52.810Z,83.40
2019-05-29T12:37:12.900Z,83.70
2019-05-29T12:39:43.669Z,84.40
2019-05-29T12:42:14.433Z,84.80
2019-05-29T12:44:45.106Z,84.80
2019-05-29T12:47:15.781Z,86.50
2019-05-29T12:49:46.514Z,86.90
2019-05-29T12:52:17.150Z,87.20
2019-05-29T12:54:47.763Z,85.90
2019-05-29T12:57:18.611Z,84.80
2019-05-29T12:59:49.240Z,85.50
2019-05-29T13:02:20.626Z,84.60
2019-05-29T13:05:06.837Z,85.60
2019-05-29T13:07:23.643Z,81.90
2019-05-29T13:09:56.494Z,87.20
2019-05-29T13:12:26.897Z,87.60
2019-05-29T13:14:58.549Z,86.20
2019-05-29T13:17:29.500Z,87.70
2019-05-29T13:20:08.276Z,87.40
2019-05-29T13:22:32.269Z,88.00
2019-05-29T13:25:03.467Z,87.60
2019-05-29T13:27:34.347Z,87.40
2019-05-29T13:30:08.272Z,87.20
2019-05-29T13:32:38.795Z,88.00
2019-05-29T13:35:09.543Z,89.10
2019-05-29T13:37:40.301Z,89.10
2019-05-29T13:40:11.115Z,89.20
2019-05-29T13:42:41.893Z,89.80
2019-05-29T13:45:17.737Z,90.00
2019-05-29T13:47:44.885Z,89.40
2019-05-29T13:50:16.625Z,90.80
2019-05-29T13:52:47.501Z,90.10
2019-05-29T13:55:19.156Z,90.70
2019-05-29T13:57:49.936Z,90.50
2019-05-29T14:00:36.115Z,91.00
2019-05-29T14:02:53.865Z,90.90
2019-05-29T14:05:24.786Z,91.20
2019-05-29T14:07:55.488Z,90.90
2019-05-29T14:10:26.488Z,90.80
2019-05-29T14:12:57.335Z,90.90
2019-05-29T14:15:27.953Z,90.80
2019-05-29T14:17:58.736Z,90.70
2019-05-29T14:20:29.412Z,90.70
2019-05-29T14:23:01.264Z,90.70
2019-05-29T14:25:32.052Z,90.80
2019-05-29T14:28:02.775Z,90.70
2019-05-29T14:30:33.483Z,90.80
2019-05-29T14:33:04.442Z,90.60
2019-05-29T14:35:35.173Z,90.60
2019-05-29T14:38:09.917Z,90.70
2019-05-29T14:40:37.840Z,90.80
2019-05-29T14:43:11.340Z,90.80
2019-05-29T14:45:40.636Z,90.50
2019-05-29T14:48:13.105Z,90.30
2019-05-29T14:50:43.296Z,90.30
2019-05-29T14:53:13.951Z,90.20
2019-05-29T14:55:44.660Z,90.00
2019-05-29T14:58:15.495Z,89.70
2019-05-29T15:00:46.153Z,89.50
2019-05-29T15:03:17.499Z,89.30
2019-05-29T15:05:48.206Z,89.10
2019-05-29T15:08:18.901Z,89.30
2019-05-29T15:10:50.138Z,89.40
2019-05-29T15:13:20.971Z,89.80
2019-05-29T15:15:51.666Z,90.20
2019-05-29T15:18:22.461Z,90.10
2019-05-29T15:20:54.202Z,90.50
2019-05-29T15:23:24.884Z,90.40
2019-05-29T15:25:55.533Z,90.40
2019-05-29T15:28:26.212Z,90.40
2019-05-29T15:30:56.975Z,90.60
2019-05-29T15:33:27.912Z,90.70
2019-05-29T15:35:58.575Z,91.00
2019-05-29T15:38:29.227Z,91.40
2019-05-29T15:40:59.980Z,91.10
2019-05-29T15:43:30.635Z,91.50
2019-05-29T15:46:01.325Z,91.30
2019-05-29T15:48:32.093Z,91.50
2019-05-29T15:51:02.774Z,91.50
2019-05-29T15:53:33.517Z,91.40
2019-05-29T15:56:18.209Z,91.10
2019-05-29T15:58:36.357Z,91.50
2019-05-29T16:01:07.661Z,91.20
2019-05-29T16:03:39.177Z,91.20
2019-05-29T16:06:10.024Z,91.40
2019-05-29T16:08:40.691Z,91.60
2019-05-29T16:11:12.621Z,90.80
2019-05-29T16:13:43.375Z,91.30
2019-05-29T16:16:15.202Z,91.40
2019-05-29T16:18:46.051Z,91.50
2019-05-29T16:21:16.900Z,91.50
2019-05-29T16:23:47.558Z,91.60
2019-05-29T16:26:19.889Z,91.60
2019-05-29T16:28:50.231Z,91.70
2019-05-29T16:31:21.139Z,91.70
2019-05-29T16:33:51.805Z,91.70
2019-05-29T16:36:22.501Z,91.90
2019-05-29T16:38:53.265Z,92.00
2019-05-29T16:41:23.964Z,92.00
2019-05-29T16:43:54.727Z,92.10
2019-05-29T16:46:25.363Z,92.20
2019-05-29T16:48:56.019Z,92.50
2019-05-29T16:51:26.679Z,92.30
2019-05-29T16:53:57.452Z,92.30
2019-05-29T16:56:28.117Z,92.40
2019-05-29T16:58:58.864Z,92.20
2019-05-29T17:01:29.534Z,92.00
2019-05-29T17:04:00.825Z,91.90
2019-05-29T17:06:31.667Z,91.90
2019-05-29T17:09:02.350Z,92.00
2019-05-29T17:11:32.984Z,92.10
2019-05-29T17:14:03.628Z,92.20
2019-05-29T17:16:34.347Z,92.20
2019-05-29T17:19:05.001Z,92.20
2019-05-29T17:21:35.773Z,92.30
2019-05-29T17:24:06.464Z,92.20
2019-05-29T17:26:37.170Z,92.20
2019-05-29T17:29:07.840Z,92.30
2019-05-29T17:31:38.504Z,92.30
2019-05-29T17:34:09.151Z,92.30
2019-05-29T17:36:39.788Z,92.30
2019-05-29T17:39:11.086Z,92.10
2019-05-29T17:41:41.901Z,92.10
2019-05-29T17:44:12.535Z,92.30
2019-05-29T17:46:43.575Z,92.50
2019-05-29T17:49:15.566Z,92.20
2019-05-29T17:51:46.506Z,92.20
2019-05-29T17:54:17.898Z,91.90
2019-05-29T17:56:48.695Z,91.80
2019-05-29T17:59:20.134Z,91.80
2019-05-29T18:01:50.944Z,92.00
2019-05-29T18:04:22.749Z,92.10
2019-05-29T18:06:56.453Z,91.90
2019-05-29T18:09:27.941Z,91.80
2019-05-29T18:11:58.666Z,91.80
2019-05-29T18:14:29.257Z,91.80
2019-05-29T18:17:00.247Z,92.00
2019-05-29T18:19:30.994Z,92.00
2019-05-29T18:22:01.711Z,91.90
2019-05-29T18:24:32.430Z,91.90
2019-05-29T18:27:03.116Z,91.90
2019-05-29T18:29:33.815Z,92.00
2019-05-29T18:32:04.535Z,91.90
2019-05-29T18:34:35.208Z,92.00
2019-05-29T18:37:05.891Z,92.20
2019-05-29T18:39:36.585Z,92.10
2019-05-29T18:42:07.328Z,92.10
2019-05-29T18:44:38.049Z,92.00
2019-05-29T18:47:08.744Z,92.00
2019-05-29T18:49:39.379Z,92.20
2019-05-29T18:52:10.001Z,92.10
2019-05-29T18:54:40.787Z,92.00
2019-05-29T18:57:15.502Z,92.10
2019-05-29T18:59:43.458Z,92.00
2019-05-29T19:02:14.160Z,92.00
2019-05-29T19:04:45.490Z,92.00
2019-05-29T19:07:16.677Z,92.00
2019-05-29T19:09:47.315Z,92.10
2019-05-29T19:12:18.191Z,92.00
2019-05-29T19:14:48.967Z,91.80
2019-05-29T19:17:19.711Z,92.00
2019-05-29T19:19:50.378Z,92.00
2019-05-29T19:22:22.200Z,91.90
2019-05-29T19:24:53.073Z,92.00
2019-05-29T19:27:36.979Z,92.20
2019-05-29T19:29:55.720Z,91.80
2019-05-29T19:32:27.675Z,92.00
2019-05-29T19:34:58.565Z,92.00
2019-05-29T19:37:29.911Z,92.20
2019-05-29T19:40:00.959Z,92.30
2019-05-29T19:42:32.318Z,92.20
2019-05-29T19:45:03.378Z,92.30
2019-05-29T19:47:34.836Z,92.20
2019-05-29T19:50:10.904Z,92.10
2019-05-29T19:52:39.610Z,92.10
2019-05-29T19:55:10.344Z,92.20
2019-05-29T19:57:54.915Z,92.30
2019-05-29T20:00:13.138Z,92.40
2019-05-29T20:02:43.860Z,92.40
2019-05-29T20:05:15.251Z,92.40
2019-05-29T20:07:46.156Z,92.40
2019-05-29T20:10:16.922Z,92.40
2019-05-29T20:12:48.988Z,92.40
2019-05-29T20:15:19.598Z,92.30
2019-05-29T20:17:50.240Z,92.30
2019-05-29T20:20:21.005Z,92.30
2019-05-29T20:22:51.649Z,92.20
2019-05-29T20:25:22.649Z,92.50
2019-05-29T20:28:05.516Z,92.50
2019-05-29T20:30:25.746Z,92.50
2019-05-29T20:32:56.422Z,92.40
2019-05-29T20:35:27.138Z,92.40
2019-05-29T20:37:57.769Z,92.50
2019-05-29T20:40:28.433Z,92.60
2019-05-29T20:42:59.208Z,92.60
2019-05-29T20:45:29.874Z,92.50
2019-05-29T20:48:00.661Z,92.50
2019-05-29T20:50:31.423Z,92.60
2019-05-29T20:53:02.034Z,92.60
2019-05-29T20:55:33.484Z,92.70
2019-05-29T20:58:04.174Z,92.70
2019-05-29T21:00:36.111Z,92.70
2019-05-29T21:03:06.895Z,92.70
2019-05-29T21:05:38.645Z,92.70
2019-05-29T21:08:09.705Z,92.70
2019-05-29T21:10:41.895Z,92.80
2019-05-29T21:13:13.824Z,92.80
2019-05-29T21:15:44.670Z,92.80
2019-05-29T21:18:15.298Z,92.90
2019-05-29T21:20:46.105Z,92.90
2019-05-29T21:23:16.763Z,92.80
2019-05-29T21:25:47.405Z,92.80
2019-05-29T21:28:18.587Z,92.90
2019-05-29T21:30:49.236Z,92.90
2019-05-29T21:33:20.147Z,93.00
2019-05-29T21:35:50.994Z,92.90
2019-05-29T21:38:21.627Z,92.90
2019-05-29T21:40:52.493Z,92.90
2019-05-29T21:43:23.205Z,92.90
2019-05-29T21:45:53.961Z,92.90
2019-05-29T21:48:24.879Z,93.00
2019-05-29T21:50:55.758Z,93.10
2019-05-29T21:53:27.003Z,93.10
2019-05-29T21:55:57.654Z,93.10
2019-05-29T21:58:28.300Z,93.10
2019-05-29T22:01:01.684Z,93.00
2019-05-29T22:03:32.491Z,93.10
2019-05-29T22:06:03.833Z,93.20
2019-05-29T22:08:34.734Z,93.20
2019-05-29T22:11:05.891Z,93.30
2019-05-29T22:13:38.581Z,93.20
2019-05-29T22:16:09.238Z,93.30
2019-05-29T22:18:39.942Z,93.30
2019-05-29T22:21:10.647Z,93.10
2019-05-29T22:23:41.912Z,93.10
2019-05-29T22:26:12.696Z,93.10
2019-05-29T22:28:43.338Z,93.10
2019-05-29T22:31:13.956Z,93.10
2019-05-29T22:33:44.622Z,93.10
2019-05-29T22:36:15.287Z,93.20
2019-05-29T22:38:45.882Z,93.30
2019-05-29T22:41:16.554Z,93.40
2019-05-29T22:43:47.251Z,93.60
2019-05-29T22:46:18.305Z,93.60
2019-05-29T22:48:49.077Z,93.60
2019-05-29T22:51:19.766Z,93.70
2019-05-29T22:53:52.343Z,93.60
2019-05-29T22:56:22.526Z,93.60
2019-05-29T22:58:53.973Z,93.30
2019-05-29T23:01:24.895Z,93.30
2019-05-29T23:03:56.083Z,93.50
2019-05-29T23:06:27.450Z,93.60
2019-05-29T23:08:58.501Z,93.60
2019-05-29T23:11:29.222Z,93.80
2019-05-29T23:14:01.110Z,93.90
2019-05-29T23:16:31.833Z,93.90
2019-05-29T23:19:02.788Z,93.80
2019-05-29T23:21:33.513Z,93.60
2019-05-29T23:24:04.195Z,93.40
2019-05-29T23:26:34.810Z,93.10
2019-05-29T23:29:05.475Z,93.20
2019-05-29T23:31:36.114Z,93.10
2019-05-29T23:34:06.741Z,93.00
2019-05-29T23:36:37.411Z,93.20
2019-05-29T23:39:08.565Z,92.90
2019-05-29T23:41:39.214Z,92.80
2019-05-29T23:44:09.916Z,92.70
2019-05-29T23:46:40.590Z,92.50
2019-05-29T23:49:11.377Z,92.60
2019-05-29T23:51:42.047Z,92.70
2019-05-29T23:54:12.874Z,92.70
2019-05-29T23:56:43.544Z,92.50
2019-05-29T23:59:14.205Z,92.30
